sensor_id;sensor_type;location;lat;lon;timestamp;pressure;altitude;pressure_sealevel;temperature;humidity
70143;BME280;57509;43.054;-0.040;2022-09-01T06:30:04;97022.81;;;19.74;77.05
70143;BME280;57509;43.054;-0.040;2022-09-01T06:33:07;97017.06;;;19.99;76.31
70143;BME280;57509;43.054;-0.040;2022-09-01T06:35:41;97013.06;;;20.18;74.54
70143;BME280;57509;43.054;-0.040;2022-09-01T06:38:18;97016.25;;;20.39;73.91
70143;BME280;57509;43.054;-0.040;2022-09-01T06:41:00;97004.03;;;20.58;73.73
70143;BME280;57509;43.054;-0.040;2022-09-01T06:43:36;97003.19;;;20.74;72.50
70143;BME280;57509;43.054;-0.040;2022-09-01T06:46:17;97017.56;;;20.93;71.89
70143;BME280;57509;43.054;-0.040;2022-09-01T06:48:56;97012.47;;;21.02;71.94
70143;BME280;57509;43.054;-0.040;2022-09-01T06:51:24;97007.56;;;21.04;71.85
70143;BME280;57509;43.054;-0.040;2022-09-01T06:54:02;97023.28;;;21.25;71.56
70143;BME280;57509;43.054;-0.040;2022-09-01T06:56:31;97016.91;;;21.36;70.91
70143;BME280;57509;43.054;-0.040;2022-09-01T06:59:03;97021.53;;;21.53;70.55
70143;BME280;57509;43.054;-0.040;2022-09-01T07:01:32;97003.09;;;21.48;70.04
70143;BME280;57509;43.054;-0.040;2022-09-01T07:04:02;97009.72;;;21.69;70.01
70143;BME280;57509;43.054;-0.040;2022-09-01T07:06:40;97009.25;;;21.77;69.14
70143;BME280;57509;43.054;-0.040;2022-09-01T07:09:41;97011.81;;;21.84;68.96
70143;BME280;57509;43.054;-0.040;2022-09-01T07:12:20;97007.69;;;21.81;68.30
70143;BME280;57509;43.054;-0.040;2022-09-01T07:14:54;97011.00;;;21.83;67.51
70143;BME280;57509;43.054;-0.040;2022-09-01T07:17:21;97007.69;;;21.81;67.80
70143;BME280;57509;43.054;-0.040;2022-09-01T07:20:01;96998.34;;;21.82;67.72
70143;BME280;57509;43.054;-0.040;2022-09-01T07:22:41;97011.78;;;22.01;67.97
70143;BME280;57509;43.054;-0.040;2022-09-01T07:25:14;97004.91;;;21.98;67.47
70143;BME280;57509;43.054;-0.040;2022-09-01T07:27:59;97013.69;;;22.00;66.48
70143;BME280;57509;43.054;-0.040;2022-09-01T07:30:40;96995.81;;;21.98;67.18
70143;BME280;57509;43.054;-0.040;2022-09-01T07:33:21;96995.75;;;21.92;67.26
70143;BME280;57509;43.054;-0.040;2022-09-01T07:36:14;96990.41;;;22.03;67.17
70143;BME280;57509;43.054;-0.040;2022-09-01T07:38:59;97004.28;;;22.13;67.18
70143;BME280;57509;43.054;-0.040;2022-09-01T07:41:26;61605.72;;;-145.05;100.00
70143;BME280;57509;43.054;-0.040;2022-09-01T07:43:53;61605.72;;;-145.05;100.00
70143;BME280;57509;43.054;-0.040;2022-09-01T07:46:31;61605.72;;;-145.05;100.00
70143;BME280;57509;43.054;-0.040;2022-09-01T07:48:58;61605.72;;;-145.05;100.00
70143;BME280;57509;43.054;-0.040;2022-09-01T07:51:28;61605.72;;;-145.05;100.00
70143;BME280;57509;43.054;-0.040;2022-09-01T07:53:55;61605.72;;;-145.05;100.00
70143;BME280;57509;43.054;-0.040;2022-09-01T07:56:22;61605.72;;;-145.05;100.00
70143;BME280;57509;43.054;-0.040;2022-09-01T07:58:51;61605.72;;;-145.05;100.00
70143;BME280;57509;43.054;-0.040;2022-09-01T08:01:28;61605.72;;;-145.05;100.00
70143;BME280;57509;43.054;-0.040;2022-09-01T08:04:12;61605.72;;;-145.05;100.00
70143;BME280;57509;43.054;-0.040;2022-09-01T08:06:48;61605.72;;;-145.05;100.00
70143;BME280;57509;43.054;-0.040;2022-09-01T08:09:30;61605.72;;;-145.05;100.00
70143;BME280;57509;43.054;-0.040;2022-09-01T08:11:58;61605.72;;;-145.05;100.00
70143;BME280;57509;43.054;-0.040;2022-09-01T08:14:26;61605.72;;;-145.05;100.00
70143;BME280;57509;43.054;-0.040;2022-09-01T08:17:05;61605.72;;;-145.05;100.00
70143;BME280;57509;43.054;-0.040;2022-09-01T08:19:41;61605.72;;;-145.05;100.00
70143;BME280;57509;43.054;-0.040;2022-09-01T08:22:18;61605.72;;;-145.05;100.00
70143;BME280;57509;43.054;-0.040;2022-09-01T08:25:07;61605.72;;;-145.05;100.00
70143;BME280;57509;43.054;-0.040;2022-09-01T08:27:43;61605.72;;;-145.05;100.00
70143;BME280;57509;43.054;-0.040;2022-09-01T08:30:20;61605.72;;;-145.05;100.00
70143;BME280;57509;43.054;-0.040;2022-09-01T08:32:51;61605.72;;;-145.05;100.00
70143;BME280;57509;43.054;-0.040;2022-09-01T08:35:22;61605.72;;;-145.05;100.00
70143;BME280;57509;43.054;-0.040;2022-09-01T08:37:59;61605.72;;;-145.05;100.00
70143;BME280;57509;43.054;-0.040;2022-09-01T08:40:37;61605.72;;;-145.05;100.00
70143;BME280;57509;43.054;-0.040;2022-09-01T08:46:16;61605.72;;;-145.05;100.00
70143;BME280;57509;43.054;-0.040;2022-09-01T08:48:46;61605.72;;;-145.05;100.00
70143;BME280;57509;43.054;-0.040;2022-09-01T08:54:17;61605.72;;;-145.05;100.00
70143;BME280;57509;43.054;-0.040;2022-09-01T08:56:59;61605.72;;;-145.05;100.00
70143;BME280;57509;43.054;-0.040;2022-09-01T08:59:26;61605.72;;;-145.05;100.00
70143;BME280;57509;43.054;-0.040;2022-09-01T09:10:20;61605.72;;;-145.05;100.00
70143;BME280;57509;43.054;-0.040;2022-09-01T09:13:10;61605.72;;;-145.05;100.00
70143;BME280;57509;43.054;-0.040;2022-09-01T09:18:32;61605.72;;;-145.05;100.00
70143;BME280;57509;43.054;-0.040;2022-09-01T09:21:10;61605.72;;;-145.05;100.00
70143;BME280;57509;43.054;-0.040;2022-09-01T09:23:46;61605.72;;;-145.05;100.00
70143;BME280;57509;43.054;-0.040;2022-09-01T09:26:50;61605.72;;;-145.05;100.00
70143;BME280;57509;43.054;-0.040;2022-09-01T09:29:31;61605.72;;;-145.05;100.00
70143;BME280;57509;43.054;-0.040;2022-09-01T09:32:12;61605.72;;;-145.05;100.00
70143;BME280;57509;43.054;-0.040;2022-09-01T09:34:39;61605.72;;;-145.05;100.00
70143;BME280;57509;43.054;-0.040;2022-09-01T09:37:41;61605.72;;;-145.05;100.00
70143;BME280;57509;43.054;-0.040;2022-09-01T09:40:15;61605.72;;;-145.05;100.00
70143;BME280;57509;43.054;-0.040;2022-09-01T09:45:33;61605.72;;;-145.05;100.00
70143;BME280;57509;43.054;-0.040;2022-09-01T09:48:02;61605.72;;;-145.05;100.00
70143;BME280;57509;43.054;-0.040;2022-09-01T09:53:28;61605.72;;;-145.05;100.00
70143;BME280;57509;43.054;-0.040;2022-09-01T09:55:56;61605.72;;;-145.05;100.00
70143;BME280;57509;43.054;-0.040;2022-09-01T09:58:38;61605.72;;;-145.05;100.00
70143;BME280;57509;43.054;-0.040;2022-09-01T10:01:09;61605.72;;;-145.05;100.00
70143;BME280;57509;43.054;-0.040;2022-09-01T10:03:51;61605.72;;;-145.05;100.00
70143;BME280;57509;43.054;-0.040;2022-09-01T10:06:37;61605.72;;;-145.05;100.00
70143;BME280;57509;43.054;-0.040;2022-09-01T10:11:53;61605.72;;;-145.05;100.00
70143;BME280;57509;43.054;-0.040;2022-09-01T10:14:49;61605.72;;;-145.05;100.00
70143;BME280;57509;43.054;-0.040;2022-09-01T10:17:35;61605.72;;;-145.05;100.00
70143;BME280;57509;43.054;-0.040;2022-09-01T10:22:46;61605.72;;;-145.05;100.00
70143;BME280;57509;43.054;-0.040;2022-09-01T10:25:21;61605.72;;;-145.05;100.00
70143;BME280;57509;43.054;-0.040;2022-09-01T10:28:02;61605.72;;;-145.05;100.00
70143;BME280;57509;43.054;-0.040;2022-09-01T10:30:43;61605.72;;;-145.05;100.00
70143;BME280;57509;43.054;-0.040;2022-09-01T10:33:23;61605.72;;;-145.05;100.00
70143;BME280;57509;43.054;-0.040;2022-09-01T10:35:59;61605.72;;;-145.05;100.00
70143;BME280;57509;43.054;-0.040;2022-09-01T10:38:38;61605.72;;;-145.05;100.00
70143;BME280;57509;43.054;-0.040;2022-09-01T10:41:52;61605.72;;;-145.05;100.00
70143;BME280;57509;43.054;-0.040;2022-09-01T10:44:35;61605.72;;;-145.05;100.00
70143;BME280;57509;43.054;-0.040;2022-09-01T10:47:10;61605.72;;;-145.05;100.00
70143;BME280;57509;43.054;-0.040;2022-09-01T10:55:20;61605.72;;;-145.05;100.00
70143;BME280;57509;43.054;-0.040;2022-09-01T11:06:06;61605.72;;;-145.05;100.00
70143;BME280;57509;43.054;-0.040;2022-09-01T11:11:25;61605.72;;;-145.05;100.00
70143;BME280;57509;43.054;-0.040;2022-09-01T11:13:59;61605.72;;;-145.05;100.00
70143;BME280;57509;43.054;-0.040;2022-09-01T11:16:32;61605.72;;;-145.05;100.00
70143;BME280;57509;43.054;-0.040;2022-09-01T11:19:30;61605.72;;;-145.05;100.00
70143;BME280;57509;43.054;-0.040;2022-09-01T11:30:23;61605.72;;;-145.05;100.00
70143;BME280;57509;43.054;-0.040;2022-09-01T11:33:08;61605.72;;;-145.05;100.00
70143;BME280;57509;43.054;-0.040;2022-09-01T11:36:11;61605.72;;;-145.05;100.00
70143;BME280;57509;43.054;-0.040;2022-09-01T11:38:52;61605.72;;;-145.05;100.00
70143;BME280;57509;43.054;-0.040;2022-09-01T11:47:06;61605.72;;;-145.05;100.00
70143;BME280;57509;43.054;-0.040;2022-09-01T11:49:44;61605.72;;;-145.05;100.00
70143;BME280;57509;43.054;-0.040;2022-09-01T11:52:14;61605.72;;;-145.05;100.00
70143;BME280;57509;43.054;-0.040;2022-09-01T11:54:43;61605.72;;;-145.05;100.00
70143;BME280;57509;43.054;-0.040;2022-09-01T11:57:27;61605.72;;;-145.05;100.00
70143;BME280;57509;43.054;-0.040;2022-09-01T12:00:05;61605.72;;;-145.05;100.00
70143;BME280;57509;43.054;-0.040;2022-09-01T12:02:49;61605.72;;;-145.05;100.00
70143;BME280;57509;43.054;-0.040;2022-09-01T12:05:32;61605.72;;;-145.05;100.00
70143;BME280;57509;43.054;-0.040;2022-09-01T12:08:03;61605.72;;;-145.05;100.00
70143;BME280;57509;43.054;-0.040;2022-09-01T12:10:43;61605.72;;;-145.05;100.00
70143;BME280;57509;43.054;-0.040;2022-09-01T12:13:22;61605.72;;;-145.05;100.00
70143;BME280;57509;43.054;-0.040;2022-09-01T12:16:05;61605.72;;;-145.05;100.00
70143;BME280;57509;43.054;-0.040;2022-09-01T12:18:44;61605.72;;;-145.05;100.00
70143;BME280;57509;43.054;-0.040;2022-09-01T12:21:40;61605.72;;;-145.05;100.00
70143;BME280;57509;43.054;-0.040;2022-09-01T12:24:23;61605.72;;;-145.05;100.00
70143;BME280;57509;43.054;-0.040;2022-09-01T12:26:53;61605.72;;;-145.05;100.00
70143;BME280;57509;43.054;-0.040;2022-09-01T12:29:21;61605.72;;;-145.05;100.00
70143;BME280;57509;43.054;-0.040;2022-09-01T12:31:49;61605.72;;;-145.05;100.00
70143;BME280;57509;43.054;-0.040;2022-09-01T12:37:06;61605.72;;;-145.05;100.00
70143;BME280;57509;43.054;-0.040;2022-09-01T12:39:44;61605.72;;;-145.05;100.00
70143;BME280;57509;43.054;-0.040;2022-09-01T12:45:02;61605.72;;;-145.05;100.00
70143;BME280;57509;43.054;-0.040;2022-09-01T12:50:06;61605.72;;;-145.05;100.00
70143;BME280;57509;43.054;-0.040;2022-09-01T12:52:34;61605.72;;;-145.05;100.00
70143;BME280;57509;43.054;-0.040;2022-09-01T13:00:20;61605.72;;;-145.05;100.00
70143;BME280;57509;43.054;-0.040;2022-09-01T13:02:50;61605.72;;;-145.05;100.00
70143;BME280;57509;43.054;-0.040;2022-09-01T13:05:30;61605.72;;;-145.05;100.00
70143;BME280;57509;43.054;-0.040;2022-09-01T13:08:05;61605.72;;;-145.05;100.00
70143;BME280;57509;43.054;-0.040;2022-09-01T13:10:47;61605.72;;;-145.05;100.00
70143;BME280;57509;43.054;-0.040;2022-09-01T13:13:14;61605.72;;;-145.05;100.00
70143;BME280;57509;43.054;-0.040;2022-09-01T13:15:47;61605.72;;;-145.05;100.00
70143;BME280;57509;43.054;-0.040;2022-09-01T13:18:17;61605.72;;;-145.05;100.00
70143;BME280;57509;43.054;-0.040;2022-09-01T13:20:45;61605.72;;;-145.05;100.00
70143;BME280;57509;43.054;-0.040;2022-09-01T13:23:14;61605.72;;;-145.05;100.00
70143;BME280;57509;43.054;-0.040;2022-09-01T13:25:41;61605.72;;;-145.05;100.00
70143;BME280;57509;43.054;-0.040;2022-09-01T13:28:12;61605.72;;;-145.05;100.00
70143;BME280;57509;43.054;-0.040;2022-09-01T13:30:38;61605.72;;;-145.05;100.00
70143;BME280;57509;43.054;-0.040;2022-09-01T13:33:04;61605.72;;;-145.05;100.00
70143;BME280;57509;43.054;-0.040;2022-09-01T13:35:38;61605.72;;;-145.05;100.00
70143;BME280;57509;43.054;-0.040;2022-09-01T13:38:11;61605.72;;;-145.05;100.00
70143;BME280;57509;43.054;-0.040;2022-09-01T13:40:41;61605.72;;;-145.05;100.00
70143;BME280;57509;43.054;-0.040;2022-09-01T13:43:21;61605.72;;;-145.05;100.00
70143;BME280;57509;43.054;-0.040;2022-09-01T13:46:00;61605.72;;;-145.05;100.00
70143;BME280;57509;43.054;-0.040;2022-09-01T13:48:38;61605.72;;;-145.05;100.00
70143;BME280;57509;43.054;-0.040;2022-09-01T13:51:04;61605.72;;;-145.05;100.00
70143;BME280;57509;43.054;-0.040;2022-09-01T13:53:33;61605.72;;;-145.05;100.00
70143;BME280;57509;43.054;-0.040;2022-09-01T13:56:02;61605.72;;;-145.05;100.00
70143;BME280;57509;43.054;-0.040;2022-09-01T13:58:28;61605.72;;;-145.05;100.00
70143;BME280;57509;43.054;-0.040;2022-09-01T14:00:53;61605.72;;;-145.05;100.00
70143;BME280;57509;43.054;-0.040;2022-09-01T14:03:24;61605.72;;;-145.05;100.00
70143;BME280;57509;43.054;-0.040;2022-09-01T14:05:50;61605.72;;;-145.05;100.00
70143;BME280;57509;43.054;-0.040;2022-09-01T14:08:20;61605.72;;;-145.05;100.00
70143;BME280;57509;43.054;-0.040;2022-09-01T14:10:48;61605.72;;;-145.05;100.00
70143;BME280;57509;43.054;-0.040;2022-09-01T14:13:22;61605.72;;;-145.05;100.00
70143;BME280;57509;43.054;-0.040;2022-09-01T14:15:52;61605.72;;;-145.05;100.00
70143;BME280;57509;43.054;-0.040;2022-09-01T14:18:20;61605.72;;;-145.05;100.00
70143;BME280;57509;43.054;-0.040;2022-09-01T14:20:52;61605.72;;;-145.05;100.00
70143;BME280;57509;43.054;-0.040;2022-09-01T14:23:19;61605.72;;;-145.05;100.00
70143;BME280;57509;43.054;-0.040;2022-09-01T14:25:47;61605.72;;;-145.05;100.00
70143;BME280;57509;43.054;-0.040;2022-09-01T14:28:13;61605.72;;;-145.05;100.00
70143;BME280;57509;43.054;-0.040;2022-09-01T14:30:40;61605.72;;;-145.05;100.00
70143;BME280;57509;43.054;-0.040;2022-09-01T14:33:29;61605.72;;;-145.05;100.00
70143;BME280;57509;43.054;-0.040;2022-09-01T14:35:58;61605.72;;;-145.05;100.00
70143;BME280;57509;43.054;-0.040;2022-09-01T14:38:24;61605.72;;;-145.05;100.00
70143;BME280;57509;43.054;-0.040;2022-09-01T14:40:54;61605.72;;;-145.05;100.00
70143;BME280;57509;43.054;-0.040;2022-09-01T14:43:20;61605.72;;;-145.05;100.00
70143;BME280;57509;43.054;-0.040;2022-09-01T14:45:46;61605.72;;;-145.05;100.00
70143;BME280;57509;43.054;-0.040;2022-09-01T14:48:17;61605.72;;;-145.05;100.00
70143;BME280;57509;43.054;-0.040;2022-09-01T14:50:50;61605.72;;;-145.05;100.00
70143;BME280;57509;43.054;-0.040;2022-09-01T14:53:16;61605.72;;;-145.05;100.00
70143;BME280;57509;43.054;-0.040;2022-09-01T14:55:46;61605.72;;;-145.05;100.00
70143;BME280;57509;43.054;-0.040;2022-09-01T14:58:12;61605.72;;;-145.05;100.00
70143;BME280;57509;43.054;-0.040;2022-09-01T15:00:38;61605.72;;;-145.05;100.00
70143;BME280;57509;43.054;-0.040;2022-09-01T15:03:07;61605.72;;;-145.05;100.00
70143;BME280;57509;43.054;-0.040;2022-09-01T15:08:30;61605.72;;;-145.05;100.00
70143;BME280;57509;43.054;-0.040;2022-09-01T15:10:56;61605.72;;;-145.05;100.00
70143;BME280;57509;43.054;-0.040;2022-09-01T15:13:22;61605.72;;;-145.05;100.00
70143;BME280;57509;43.054;-0.040;2022-09-01T15:15:56;61605.72;;;-145.05;100.00
70143;BME280;57509;43.054;-0.040;2022-09-01T15:18:23;61605.72;;;-145.05;100.00
70143;BME280;57509;43.054;-0.040;2022-09-01T15:20:54;61605.72;;;-145.05;100.00
70143;BME280;57509;43.054;-0.040;2022-09-01T15:23:42;61605.72;;;-145.05;100.00
70143;BME280;57509;43.054;-0.040;2022-09-01T15:26:19;61605.72;;;-145.05;100.00
70143;BME280;57509;43.054;-0.040;2022-09-01T15:28:46;61605.72;;;-145.05;100.00
70143;BME280;57509;43.054;-0.040;2022-09-01T15:31:20;61605.72;;;-145.05;100.00
70143;BME280;57509;43.054;-0.040;2022-09-01T15:33:55;61605.72;;;-145.05;100.00
70143;BME280;57509;43.054;-0.040;2022-09-01T15:36:25;61605.72;;;-145.05;100.00
70143;BME280;57509;43.054;-0.040;2022-09-01T15:39:01;61605.72;;;-145.05;100.00
70143;BME280;57509;43.054;-0.040;2022-09-01T15:41:30;61605.72;;;-145.05;100.00
70143;BME280;57509;43.054;-0.040;2022-09-01T15:44:22;61605.72;;;-145.05;100.00
70143;BME280;57509;43.054;-0.040;2022-09-01T15:46:50;61605.72;;;-145.05;100.00
70143;BME280;57509;43.054;-0.040;2022-09-01T15:49:24;61605.72;;;-145.05;100.00
70143;BME280;57509;43.054;-0.040;2022-09-01T15:51:54;61605.72;;;-145.05;100.00
70143;BME280;57509;43.054;-0.040;2022-09-01T15:54:21;61605.72;;;-145.05;100.00
70143;BME280;57509;43.054;-0.040;2022-09-01T15:56:49;61605.72;;;-145.05;100.00
70143;BME280;57509;43.054;-0.040;2022-09-01T15:59:15;61605.72;;;-145.05;100.00
70143;BME280;57509;43.054;-0.040;2022-09-01T16:01:43;61605.72;;;-145.05;100.00
70143;BME280;57509;43.054;-0.040;2022-09-01T16:04:19;61605.72;;;-145.05;100.00
70143;BME280;57509;43.054;-0.040;2022-09-01T16:06:44;61605.72;;;-145.05;100.00
70143;BME280;57509;43.054;-0.040;2022-09-01T16:09:10;61605.72;;;-145.05;100.00
70143;BME280;57509;43.054;-0.040;2022-09-01T16:11:46;61605.72;;;-145.05;100.00
70143;BME280;57509;43.054;-0.040;2022-09-01T16:14:12;61605.72;;;-145.05;100.00
70143;BME280;57509;43.054;-0.040;2022-09-01T16:19:47;61605.72;;;-145.05;100.00
70143;BME280;57509;43.054;-0.040;2022-09-01T16:22:41;61605.72;;;-145.05;100.00
70143;BME280;57509;43.054;-0.040;2022-09-01T16:25:14;61605.72;;;-145.05;100.00
70143;BME280;57509;43.054;-0.040;2022-09-01T16:27:52;61605.72;;;-145.05;100.00
70143;BME280;57509;43.054;-0.040;2022-09-01T16:30:23;61605.72;;;-145.05;100.00
70143;BME280;57509;43.054;-0.040;2022-09-01T16:32:58;61605.72;;;-145.05;100.00
70143;BME280;57509;43.054;-0.040;2022-09-01T16:44:13;61605.72;;;-145.05;100.00
70143;BME280;57509;43.054;-0.040;2022-09-01T16:49:41;61605.72;;;-145.05;100.00
70143;BME280;57509;43.054;-0.040;2022-09-01T16:52:26;61605.72;;;-145.05;100.00
70143;BME280;57509;43.054;-0.040;2022-09-01T16:58:05;61605.72;;;-145.05;100.00
70143;BME280;57509;43.054;-0.040;2022-09-01T17:00:42;61605.72;;;-145.05;100.00
70143;BME280;57509;43.054;-0.040;2022-09-01T17:03:15;61605.72;;;-145.05;100.00
70143;BME280;57509;43.054;-0.040;2022-09-01T17:06:07;61605.72;;;-145.05;100.00
70143;BME280;57509;43.054;-0.040;2022-09-01T17:08:50;61605.72;;;-145.05;100.00
70143;BME280;57509;43.054;-0.040;2022-09-01T17:14:05;61605.72;;;-145.05;100.00
70143;BME280;57509;43.054;-0.040;2022-09-01T17:16:41;61605.72;;;-145.05;100.00
70143;BME280;57509;43.054;-0.040;2022-09-01T17:19:16;61605.72;;;-145.05;100.00
70143;BME280;57509;43.054;-0.040;2022-09-01T17:21:48;61605.72;;;-145.05;100.00
70143;BME280;57509;43.054;-0.040;2022-09-01T17:24:32;61605.72;;;-145.05;100.00
70143;BME280;57509;43.054;-0.040;2022-09-01T17:27:20;61605.72;;;-145.05;100.00
70143;BME280;57509;43.054;-0.040;2022-09-01T17:29:51;61605.72;;;-145.05;100.00
70143;BME280;57509;43.054;-0.040;2022-09-01T17:32:39;61605.72;;;-145.05;100.00
70143;BME280;57509;43.054;-0.040;2022-09-01T17:43:32;61605.72;;;-145.05;100.00
70143;BME280;57509;43.054;-0.040;2022-09-01T17:46:30;61605.72;;;-145.05;100.00
70143;BME280;57509;43.054;-0.040;2022-09-01T18:00:22;61605.72;;;-145.05;100.00
70143;BME280;57509;43.054;-0.040;2022-09-01T18:03:02;61605.72;;;-145.05;100.00
70143;BME280;57509;43.054;-0.040;2022-09-01T18:06:01;61605.72;;;-145.05;100.00
70143;BME280;57509;43.054;-0.040;2022-09-01T18:08:44;61605.72;;;-145.05;100.00
70143;BME280;57509;43.054;-0.040;2022-09-01T18:11:20;61605.72;;;-145.05;100.00
70143;BME280;57509;43.054;-0.040;2022-09-01T18:16:24;61605.72;;;-145.05;100.00
70143;BME280;57509;43.054;-0.040;2022-09-01T18:19:00;61605.72;;;-145.05;100.00
70143;BME280;57509;43.054;-0.040;2022-09-01T18:21:59;61605.72;;;-145.05;100.00
70143;BME280;57509;43.054;-0.040;2022-09-01T18:24:52;61605.72;;;-145.05;100.00
70143;BME280;57509;43.054;-0.040;2022-09-01T18:27:42;61605.72;;;-145.05;100.00
70143;BME280;57509;43.054;-0.040;2022-09-01T18:30:19;61605.72;;;-145.05;100.00
70143;BME280;57509;43.054;-0.040;2022-09-01T18:45:33;96712.88;;;27.42;48.03
70143;BME280;57509;43.054;-0.040;2022-09-01T18:50:52;96715.94;;;27.21;48.14
70143;BME280;57509;43.054;-0.040;2022-09-01T18:53:47;61605.72;;;-145.05;100.00
70143;BME280;57509;43.054;-0.040;2022-09-01T18:56:38;61605.72;;;-145.05;100.00
70143;BME280;57509;43.054;-0.040;2022-09-01T19:08:05;61605.72;;;-145.05;100.00
70143;BME280;57509;43.054;-0.040;2022-09-01T19:10:43;61605.72;;;-145.05;100.00
70143;BME280;57509;43.054;-0.040;2022-09-01T19:21:45;61605.72;;;-145.05;100.00
70143;BME280;57509;43.054;-0.040;2022-09-01T19:24:46;96775.44;;;25.98;52.74
70143;BME280;57509;43.054;-0.040;2022-09-01T19:27:24;61605.72;;;-145.05;100.00
70143;BME280;57509;43.054;-0.040;2022-09-01T19:29:56;61605.72;;;-145.05;100.00
70143;BME280;57509;43.054;-0.040;2022-09-01T19:32:26;61605.72;;;-145.05;100.00
70143;BME280;57509;43.054;-0.040;2022-09-01T19:37:57;96772.81;;;25.67;52.56
70143;BME280;57509;43.054;-0.040;2022-09-01T19:41:18;96768.69;;;25.64;52.09
70143;BME280;57509;43.054;-0.040;2022-09-01T19:47:24;96773.97;;;25.56;52.89
70143;BME280;57509;43.054;-0.040;2022-09-01T19:52:44;96792.41;;;25.71;53.01
70143;BME280;57509;43.054;-0.040;2022-09-01T19:55:23;61605.72;;;-145.05;100.00
70143;BME280;57509;43.054;-0.040;2022-09-01T19:58:15;61605.72;;;-145.05;100.00
70143;BME280;57509;43.054;-0.040;2022-09-01T20:00:52;61605.72;;;-145.05;100.00
70143;BME280;57509;43.054;-0.040;2022-09-01T20:03:50;61605.72;;;-145.05;100.00
70143;BME280;57509;43.054;-0.040;2022-09-01T20:08:57;61605.72;;;-145.05;100.00
70143;BME280;57509;43.054;-0.040;2022-09-01T20:11:48;61605.72;;;-145.05;100.00
70143;BME280;57509;43.054;-0.040;2022-09-01T20:17:40;61605.72;;;-145.05;100.00
70143;BME280;57509;43.054;-0.040;2022-09-01T20:20:15;61605.72;;;-145.05;100.00
70143;BME280;57509;43.054;-0.040;2022-09-01T20:26:00;61605.72;;;-145.05;100.00
70143;BME280;57509;43.054;-0.040;2022-09-01T20:29:11;61605.72;;;-145.05;100.00
70143;BME280;57509;43.054;-0.040;2022-09-01T20:31:44;61605.72;;;-145.05;100.00
70143;BME280;57509;43.054;-0.040;2022-09-01T20:37:38;61605.72;;;-145.05;100.00
70143;BME280;57509;43.054;-0.040;2022-09-01T20:40:16;61605.72;;;-145.05;100.00
70143;BME280;57509;43.054;-0.040;2022-09-01T20:45:34;61605.72;;;-145.05;100.00
70143;BME280;57509;43.054;-0.040;2022-09-01T20:48:29;61605.72;;;-145.05;100.00
70143;BME280;57509;43.054;-0.040;2022-09-01T20:51:10;61605.72;;;-145.05;100.00
70143;BME280;57509;43.054;-0.040;2022-09-01T20:54:03;61605.72;;;-145.05;100.00
70143;BME280;57509;43.054;-0.040;2022-09-01T20:59:56;61605.72;;;-145.05;100.00
70143;BME280;57509;43.054;-0.040;2022-09-01T21:22:43;96817.38;;;25.55;53.42
70143;BME280;57509;43.054;-0.040;2022-09-01T21:25:14;96817.34;;;25.60;53.73
70143;BME280;57509;43.054;-0.040;2022-09-01T21:27:43;96820.13;;;25.60;53.98
70143;BME280;57509;43.054;-0.040;2022-09-01T21:30:14;96833.34;;;25.68;53.57
70143;BME280;57509;43.054;-0.040;2022-09-01T21:32:42;96818.38;;;25.80;53.63
70143;BME280;57509;43.054;-0.040;2022-09-01T21:35:11;96813.91;;;25.84;53.71
70143;BME280;57509;43.054;-0.040;2022-09-01T21:37:40;96806.22;;;25.81;54.20
70143;BME280;57509;43.054;-0.040;2022-09-01T21:40:08;96811.97;;;25.89;53.84
70143;BME280;57509;43.054;-0.040;2022-09-01T21:42:45;96824.91;;;25.99;54.53
70143;BME280;57509;43.054;-0.040;2022-09-01T21:45:14;96828.00;;;25.92;54.63
70143;BME280;57509;43.054;-0.040;2022-09-01T21:47:45;96837.47;;;25.76;55.44
70143;BME280;57509;43.054;-0.040;2022-09-01T21:50:16;96837.19;;;25.78;55.13
70143;BME280;57509;43.054;-0.040;2022-09-01T21:52:46;96817.84;;;25.73;55.69
70143;BME280;57509;43.054;-0.040;2022-09-01T21:55:23;96823.91;;;25.80;55.05
70143;BME280;57509;43.054;-0.040;2022-09-01T21:57:57;96821.19;;;25.64;55.34
70143;BME280;57509;43.054;-0.040;2022-09-01T22:00:27;96838.88;;;25.74;55.39
70143;BME280;57509;43.054;-0.040;2022-09-01T22:02:53;96840.78;;;25.68;55.49
70143;BME280;57509;43.054;-0.040;2022-09-01T22:05:22;96836.09;;;25.68;55.13
70143;BME280;57509;43.054;-0.040;2022-09-01T22:08:01;96827.84;;;25.58;55.22
70143;BME280;57509;43.054;-0.040;2022-09-01T22:10:32;96837.22;;;25.67;54.93
70143;BME280;57509;43.054;-0.040;2022-09-01T22:13:02;96830.59;;;25.58;54.62
70143;BME280;57509;43.054;-0.040;2022-09-01T22:15:28;96830.91;;;25.52;54.99
70143;BME280;57509;43.054;-0.040;2022-09-01T22:17:56;96838.34;;;25.61;54.74
70143;BME280;57509;43.054;-0.040;2022-09-01T22:20:23;96837.03;;;25.38;55.71
70143;BME280;57509;43.054;-0.040;2022-09-01T22:22:59;96839.53;;;25.35;55.55
70143;BME280;57509;43.054;-0.040;2022-09-01T22:25:34;96837.06;;;25.28;55.47
70143;BME280;57509;43.054;-0.040;2022-09-01T22:28:04;96842.88;;;25.27;55.81
70143;BME280;57509;43.054;-0.040;2022-09-01T22:30:35;96853.94;;;25.17;55.64
70143;BME280;57509;43.054;-0.040;2022-09-01T22:33:01;96850.63;;;25.14;55.63
70143;BME280;57509;43.054;-0.040;2022-09-01T22:35:45;96841.50;;;24.99;55.93
70143;BME280;57509;43.054;-0.040;2022-09-01T22:38:17;96838.75;;;25.14;55.98
70143;BME280;57509;43.054;-0.040;2022-09-01T22:40:48;96847.28;;;25.28;55.35
70143;BME280;57509;43.054;-0.040;2022-09-01T22:43:16;96839.00;;;25.18;55.30
70143;BME280;57509;43.054;-0.040;2022-09-01T22:45:54;96847.84;;;25.25;55.10
70143;BME280;57509;43.054;-0.040;2022-09-01T22:48:24;96849.50;;;25.21;55.11
70143;BME280;57509;43.054;-0.040;2022-09-01T22:51:04;96827.97;;;25.02;56.29
70143;BME280;57509;43.054;-0.040;2022-09-01T22:53:41;96820.53;;;25.03;56.10
70143;BME280;57509;43.054;-0.040;2022-09-01T22:56:15;96845.66;;;25.11;55.69
70143;BME280;57509;43.054;-0.040;2022-09-01T22:58:50;96849.50;;;25.16;56.22